Terminal Aerodrome Forecast
Issued by NWS Spokane, WA

Home | Current Version | Previous Version | Text Only | Print | Product List | Glossary On
Versions: 1 2 3 4 5 6 7 8 9 10 11 12 13 14 15 16 17 18 19 20 21 22 23 24 25 26
000
FTUS46 KOTX 021737
TAFEAT
TAF
KEAT 021737Z 0218/0318 29006KT P6SM SCT050 BKN060 OVC070
     FM022300 30018G26KT P6SM SCT050 BKN150
     FM030600 30014KT P6SM SKC
     FM030800 30010KT P6SM SKC=

USA.gov is the U.S. government's official web portal to all federal, state and local government web resources and services.